createdAt,value
2023-03-29T00:00:00.437Z,1.7
2023-03-29T00:01:00.774Z,1.7
2023-03-29T00:02:00.508Z,1.7
2023-03-29T00:03:00.403Z,1.7
2023-03-29T00:04:02.444Z,1.7
2023-03-29T00:05:00.352Z,1.7
2023-03-29T00:06:01.002Z,1.7
2023-03-29T00:07:00.253Z,1.7
2023-03-29T00:08:00.383Z,1.7
2023-03-29T00:09:00.336Z,1.7
2023-03-29T00:10:00.837Z,1.8
2023-03-29T00:11:00.554Z,1.8
2023-03-29T00:12:00.442Z,1.8
2023-03-29T00:13:00.867Z,1.8
2023-03-29T00:14:00.268Z,1.8
2023-03-29T00:15:00.359Z,1.8
2023-03-29T00:16:00.283Z,1.8
2023-03-29T00:17:00.281Z,1.8
2023-03-29T00:18:00.270Z,1.8
2023-03-29T00:19:00.264Z,1.8
2023-03-29T00:20:00.269Z,1.8
2023-03-29T00:21:00.870Z,1.8
2023-03-29T00:22:00.878Z,1.8
2023-03-29T00:23:00.266Z,1.8
2023-03-29T00:24:00.303Z,1.8
2023-03-29T00:25:00.275Z,1.8
2023-03-29T00:26:00.285Z,1.8
2023-03-29T00:27:00.333Z,1.8
2023-03-29T00:28:00.296Z,1.8
2023-03-29T00:29:00.290Z,1.8
2023-03-29T00:30:00.292Z,1.5
2023-03-29T00:31:09.229Z,1.5
2023-03-29T00:32:00.247Z,1.5
2023-03-29T00:33:00.286Z,1.5
2023-03-29T00:34:00.286Z,1.5
2023-03-29T00:35:00.257Z,1.5
2023-03-29T00:36:00.504Z,1.5
2023-03-29T00:37:00.555Z,1.5
2023-03-29T00:38:00.266Z,1.5
2023-03-29T00:39:00.266Z,1.5
2023-03-29T00:40:00.287Z,1.5
2023-03-29T00:41:00.473Z,1.5
2023-03-29T00:42:00.270Z,1.5
2023-03-29T00:43:00.271Z,1.5
2023-03-29T00:44:01.658Z,1.5
2023-03-29T00:45:03.466Z,1.5
2023-03-29T00:46:00.435Z,1.5
2023-03-29T00:47:00.263Z,1.5
2023-03-29T00:48:01.724Z,1.5
2023-03-29T00:49:04.003Z,1.6
2023-03-29T00:50:03.879Z,1.6
2023-03-29T00:51:04.848Z,1.6
2023-03-29T00:52:00.313Z,1.6
2023-03-29T00:53:03.671Z,1.6
2023-03-29T00:54:02.296Z,1.6
2023-03-29T00:55:02.680Z,1.6
2023-03-29T00:56:10.211Z,1.6
2023-03-29T00:57:00.338Z,1.6
2023-03-29T00:58:01.416Z,1.6
2023-03-29T00:59:05.607Z,1.6
2023-03-29T01:00:01.290Z,1.6
2023-03-29T01:01:05.145Z,1.6
2023-03-29T01:02:01.994Z,1.6
2023-03-29T01:03:03.715Z,1.6
2023-03-29T01:04:03.445Z,1.6
2023-03-29T01:05:03.037Z,1.6
2023-03-29T01:06:03.889Z,1.6
2023-03-29T01:07:08.053Z,1.6
2023-03-29T01:08:02.236Z,1.6
2023-03-29T01:09:01.913Z,1.5
2023-03-29T01:10:05.461Z,1.5
2023-03-29T01:11:04.911Z,1.5
2023-03-29T01:12:01.683Z,1.5
2023-03-29T01:13:03.687Z,1.5
2023-03-29T01:14:01.928Z,1.5
2023-03-29T01:15:03.682Z,1.5
2023-03-29T01:16:01.208Z,1.5
2023-03-29T01:17:00.343Z,1.5
2023-03-29T01:18:00.437Z,1.5
2023-03-29T01:19:00.405Z,1.5
2023-03-29T01:20:03.756Z,1.5
2023-03-29T01:21:10.211Z,1.5
2023-03-29T01:22:09.020Z,1.5
2023-03-29T01:23:10.215Z,1.5
2023-03-29T01:24:10.213Z,1.5
2023-03-29T01:25:01.304Z,1.5
2023-03-29T01:26:10.216Z,1.5
2023-03-29T01:27:10.208Z,1.5
2023-03-29T01:28:02.668Z,1.5
2023-03-29T01:29:05.057Z,1.4
2023-03-29T01:30:02.209Z,1.4
2023-03-29T01:31:01.453Z,1.4
2023-03-29T01:32:07.485Z,1.4
2023-03-29T01:33:03.679Z,1.4
2023-03-29T01:34:04.395Z,1.4
2023-03-29T01:35:04.822Z,1.4
2023-03-29T01:36:04.271Z,1.4
2023-03-29T01:37:04.650Z,1.4
2023-03-29T01:38:05.032Z,1.4
2023-03-29T01:39:01.498Z,1.4
2023-03-29T01:40:00.346Z,1.4
2023-03-29T01:41:00.785Z,1.4
2023-03-29T01:42:08.857Z,1.4
2023-03-29T01:43:03.529Z,1.4
2023-03-29T01:44:04.712Z,1.4
2023-03-29T01:45:05.913Z,1.4
2023-03-29T01:46:00.320Z,1.4
2023-03-29T01:47:09.612Z,1.4
2023-03-29T01:48:07.164Z,1.4
2023-03-29T01:49:04.123Z,1.5
2023-03-29T01:50:05.604Z,1.5
2023-03-29T01:51:10.205Z,1.5
2023-03-29T01:52:04.089Z,1.5
2023-03-29T01:53:04.088Z,1.5
2023-03-29T01:54:03.514Z,1.5
2023-03-29T01:55:04.345Z,1.5
2023-03-29T01:56:04.483Z,1.5
2023-03-29T01:57:01.268Z,1.5
2023-03-29T01:58:02.357Z,1.5
2023-03-29T01:59:02.497Z,1.5
2023-03-29T02:00:00.653Z,1.5
2023-03-29T02:01:01.421Z,1.5
2023-03-29T02:02:02.915Z,1.5
2023-03-29T02:03:03.325Z,1.5
2023-03-29T02:04:02.446Z,1.5
2023-03-29T02:05:00.387Z,1.5
2023-03-29T02:06:01.640Z,1.5
2023-03-29T02:07:01.963Z,1.5
2023-03-29T02:08:02.570Z,1.5
2023-03-29T02:09:00.281Z,1.7
2023-03-29T02:10:00.442Z,1.7
2023-03-29T02:11:00.549Z,1.7
2023-03-29T02:12:01.060Z,1.7
2023-03-29T02:13:00.290Z,1.7
2023-03-29T02:14:00.272Z,1.7
2023-03-29T02:15:00.261Z,1.7
2023-03-29T02:16:02.185Z,1.7
2023-03-29T02:17:10.215Z,1.7
2023-03-29T02:18:00.320Z,1.7
2023-03-29T02:19:00.323Z,1.7
2023-03-29T02:20:03.658Z,1.7
2023-03-29T02:21:01.128Z,1.7
2023-03-29T02:22:06.184Z,1.7
2023-03-29T02:23:10.204Z,1.7
2023-03-29T02:24:03.418Z,1.7
2023-03-29T02:25:01.959Z,1.7
2023-03-29T02:26:01.148Z,1.7
2023-03-29T02:27:00.256Z,1.7
2023-03-29T02:28:00.515Z,1.7
2023-03-29T02:29:00.580Z,1.4
2023-03-29T02:30:00.274Z,1.4
2023-03-29T02:31:04.806Z,1.4
2023-03-29T02:32:04.695Z,1.4
2023-03-29T02:33:08.884Z,1.4
2023-03-29T02:34:03.635Z,1.4
2023-03-29T02:35:06.144Z,1.4
2023-03-29T02:36:10.346Z,1.4
2023-03-29T02:37:02.723Z,1.4
2023-03-29T02:38:02.005Z,1.4
2023-03-29T02:39:01.304Z,1.4
2023-03-29T02:40:00.407Z,1.4
2023-03-29T02:41:01.369Z,1.4
2023-03-29T02:42:01.953Z,1.4
2023-03-29T02:43:00.752Z,1.4
2023-03-29T02:44:02.093Z,1.4
2023-03-29T02:45:00.905Z,1.4
2023-03-29T02:46:01.828Z,1.4
2023-03-29T02:47:04.588Z,1.4
2023-03-29T02:48:02.567Z,1.4
2023-03-29T02:49:00.260Z,1.6
2023-03-29T02:50:00.371Z,1.6
2023-03-29T02:51:02.283Z,1.6
2023-03-29T02:52:03.744Z,1.6
2023-03-29T02:53:03.091Z,1.6
2023-03-29T02:54:04.991Z,1.6
2023-03-29T02:55:01.543Z,1.6
2023-03-29T02:56:00.403Z,1.6
2023-03-29T02:57:02.412Z,1.6
2023-03-29T02:58:00.747Z,1.6
2023-03-29T02:59:00.259Z,1.6
2023-03-29T03:00:00.286Z,1.6
2023-03-29T03:01:01.263Z,1.6
2023-03-29T03:02:00.319Z,1.6
2023-03-29T03:03:02.032Z,1.6
2023-03-29T03:04:00.330Z,1.6
2023-03-29T03:05:00.274Z,1.6
2023-03-29T03:06:00.469Z,1.6
2023-03-29T03:07:00.668Z,1.6
2023-03-29T03:08:00.297Z,1.6
2023-03-29T03:09:00.282Z,1.4
2023-03-29T03:10:00.257Z,1.4
2023-03-29T03:11:00.493Z,1.4
2023-03-29T03:12:00.297Z,1.4
2023-03-29T03:13:00.635Z,1.4
2023-03-29T03:14:00.279Z,1.4
2023-03-29T03:15:00.283Z,1.4
2023-03-29T03:16:00.295Z,1.4
2023-03-29T03:17:01.755Z,1.4
2023-03-29T03:18:00.851Z,1.4
2023-03-29T03:19:00.296Z,1.4
2023-03-29T03:20:00.255Z,1.4
2023-03-29T03:21:00.609Z,1.4
2023-03-29T03:22:00.276Z,1.4
2023-03-29T03:23:00.779Z,1.4
2023-03-29T03:24:00.270Z,1.4
2023-03-29T03:25:00.245Z,1.4
2023-03-29T03:26:00.297Z,1.4
2023-03-29T03:27:00.249Z,1.4
2023-03-29T03:28:00.464Z,1.4
2023-03-29T03:29:00.420Z,1.4
2023-03-29T03:30:00.259Z,1.4
2023-03-29T03:31:00.451Z,1.4
2023-03-29T03:32:00.282Z,1.4
2023-03-29T03:33:00.588Z,1.4
2023-03-29T03:34:00.300Z,1.4
2023-03-29T03:35:00.492Z,1.4
2023-03-29T03:36:00.302Z,1.4
2023-03-29T03:37:00.268Z,1.4
2023-03-29T03:38:00.257Z,1.4
2023-03-29T03:39:00.528Z,1.4
2023-03-29T03:40:00.275Z,1.4
2023-03-29T03:41:00.955Z,1.4
2023-03-29T03:42:00.240Z,1.4
2023-03-29T03:43:00.251Z,1.4
2023-03-29T03:44:00.411Z,1.4
2023-03-29T03:45:00.285Z,1.4
2023-03-29T03:46:00.636Z,1.4
2023-03-29T03:47:00.250Z,1.4
2023-03-29T03:48:00.344Z,1.4
2023-03-29T03:49:00.245Z,1.5
2023-03-29T03:50:00.249Z,1.5
2023-03-29T03:51:00.628Z,1.5
2023-03-29T03:52:00.274Z,1.5
2023-03-29T03:53:00.268Z,1.5
2023-03-29T03:54:00.289Z,1.5
2023-03-29T03:55:00.287Z,1.5
2023-03-29T03:56:00.270Z,1.5
2023-03-29T03:57:00.287Z,1.5
2023-03-29T03:58:00.698Z,1.5
2023-03-29T03:59:00.284Z,1.5
2023-03-29T04:00:00.246Z,1.5
2023-03-29T04:01:00.466Z,1.5
2023-03-29T04:02:00.452Z,1.5
2023-03-29T04:03:00.360Z,1.5
2023-03-29T04:04:00.395Z,1.5
2023-03-29T04:05:00.261Z,1.5
2023-03-29T04:06:00.719Z,1.5
2023-03-29T04:07:00.636Z,1.5
2023-03-29T04:08:00.270Z,1.5
2023-03-29T04:09:00.271Z,1.5
2023-03-29T04:10:00.255Z,1.5
2023-03-29T04:11:00.933Z,1.5
2023-03-29T04:12:00.286Z,1.5
2023-03-29T04:13:00.900Z,1.5
2023-03-29T04:14:00.395Z,1.5
2023-03-29T04:15:00.655Z,1.5
2023-03-29T04:16:01.838Z,1.5
2023-03-29T04:17:00.358Z,1.5
2023-03-29T04:18:00.375Z,1.5
2023-03-29T04:19:00.291Z,1.5
2023-03-29T04:20:00.291Z,1.5
2023-03-29T04:21:00.450Z,1.5
2023-03-29T04:22:00.267Z,1.5
2023-03-29T04:23:00.682Z,1.5
2023-03-29T04:24:00.256Z,1.5
2023-03-29T04:25:00.248Z,1.5
2023-03-29T04:26:00.312Z,1.5
2023-03-29T04:27:00.250Z,1.5
2023-03-29T04:28:00.503Z,1.5
2023-03-29T04:29:00.254Z,1.3
2023-03-29T04:30:00.295Z,1.3
2023-03-29T04:31:00.554Z,1.3
2023-03-29T04:32:00.294Z,1.3
2023-03-29T04:33:00.315Z,1.3
2023-03-29T04:34:00.594Z,1.3
2023-03-29T04:35:00.518Z,1.3
2023-03-29T04:36:00.354Z,1.3
2023-03-29T04:37:00.252Z,1.3
2023-03-29T04:38:00.285Z,1.3
2023-03-29T04:39:00.273Z,1.3
2023-03-29T04:40:00.363Z,1.3
2023-03-29T04:41:00.926Z,1.3
2023-03-29T04:42:00.274Z,1.3
2023-03-29T04:43:00.367Z,1.3
2023-03-29T04:44:00.277Z,1.3
2023-03-29T04:45:00.536Z,1.3
2023-03-29T04:46:00.564Z,1.3
2023-03-29T04:47:00.387Z,1.3
2023-03-29T04:48:00.313Z,1.5
2023-03-29T04:49:00.271Z,1.5
2023-03-29T04:50:00.345Z,1.5
2023-03-29T04:51:00.427Z,1.5
2023-03-29T04:52:00.260Z,1.5
2023-03-29T04:53:00.420Z,1.5
2023-03-29T04:54:00.300Z,1.5
2023-03-29T04:55:00.724Z,1.5
2023-03-29T04:56:00.289Z,1.5
2023-03-29T04:57:00.355Z,1.5
2023-03-29T04:58:00.260Z,1.5
2023-03-29T04:59:00.284Z,1.5
2023-03-29T05:00:00.420Z,1.5
2023-03-29T05:01:00.371Z,1.5
2023-03-29T05:02:00.297Z,1.5
2023-03-29T05:03:00.373Z,1.5
2023-03-29T05:04:00.307Z,1.5
2023-03-29T05:05:00.270Z,1.5
2023-03-29T05:06:02.603Z,1.5
2023-03-29T05:07:00.267Z,1.5
2023-03-29T05:08:00.277Z,1.5
2023-03-29T05:09:00.267Z,1.5
2023-03-29T05:10:00.312Z,1.5
2023-03-29T05:11:00.517Z,1.5
2023-03-29T05:12:00.578Z,1.5
2023-03-29T05:13:00.634Z,1.5
2023-03-29T05:14:00.314Z,1.5
2023-03-29T05:15:00.261Z,1.5
2023-03-29T05:16:00.519Z,1.5
2023-03-29T05:17:00.255Z,1.5
2023-03-29T05:18:00.479Z,1.5
2023-03-29T05:19:00.441Z,1.5
2023-03-29T05:20:00.303Z,1.5
2023-03-29T05:21:00.845Z,1.5
2023-03-29T05:22:00.256Z,1.5
2023-03-29T05:23:00.286Z,1.5
2023-03-29T05:24:00.494Z,1.5
2023-03-29T05:25:00.256Z,1.5
2023-03-29T05:26:00.310Z,1.5
2023-03-29T05:27:00.280Z,1.5
2023-03-29T05:28:00.319Z,1.4
2023-03-29T05:29:00.267Z,1.4
2023-03-29T05:30:00.466Z,1.4
2023-03-29T05:31:01.849Z,1.4
2023-03-29T05:32:00.322Z,1.4
2023-03-29T05:33:00.839Z,1.4
2023-03-29T05:34:00.270Z,1.4
2023-03-29T05:35:00.268Z,1.4
2023-03-29T05:36:01.070Z,1.4
2023-03-29T05:37:00.258Z,1.4
2023-03-29T05:38:00.542Z,1.4
2023-03-29T05:39:00.249Z,1.4
2023-03-29T05:40:05.783Z,1.4
2023-03-29T05:41:01.267Z,1.4
2023-03-29T05:42:00.255Z,1.4
2023-03-29T05:43:00.282Z,1.4
2023-03-29T05:44:00.280Z,1.4
2023-03-29T05:45:00.282Z,1.4
2023-03-29T05:46:00.304Z,1.4
2023-03-29T05:47:00.283Z,1.4
2023-03-29T05:48:00.350Z,1.4
2023-03-29T05:49:00.387Z,1.4
2023-03-29T05:50:00.274Z,1.4
2023-03-29T05:51:00.575Z,1.4
2023-03-29T05:52:00.259Z,1.4
2023-03-29T05:53:00.262Z,1.4
2023-03-29T05:54:00.420Z,1.4
2023-03-29T05:55:00.323Z,1.4
2023-03-29T05:56:00.388Z,1.4
2023-03-29T05:57:00.327Z,1.4
2023-03-29T05:58:00.252Z,1.4
2023-03-29T05:59:00.247Z,1.4
2023-03-29T06:00:00.269Z,1.4
2023-03-29T06:01:00.512Z,1.4
2023-03-29T06:02:00.416Z,1.4
2023-03-29T06:03:10.190Z,1.4
2023-03-29T06:04:00.366Z,1.4
2023-03-29T06:05:00.358Z,1.4
2023-03-29T06:06:01.019Z,1.4
2023-03-29T06:07:00.260Z,1.4
2023-03-29T06:08:00.602Z,1.6
2023-03-29T06:09:00.271Z,1.6
2023-03-29T06:10:00.579Z,1.6
2023-03-29T06:11:04.322Z,1.6
2023-03-29T06:12:00.253Z,1.6
2023-03-29T06:13:00.264Z,1.6
2023-03-29T06:14:00.262Z,1.6
2023-03-29T06:15:00.254Z,1.6
2023-03-29T06:16:00.436Z,1.6
2023-03-29T06:17:00.367Z,1.6
2023-03-29T06:18:00.798Z,1.6
2023-03-29T06:19:00.261Z,1.6
2023-03-29T06:20:00.415Z,1.6
2023-03-29T06:21:00.709Z,1.6
2023-03-29T06:22:00.247Z,1.6
2023-03-29T06:23:00.270Z,1.6
2023-03-29T06:24:00.289Z,1.6
2023-03-29T06:25:00.255Z,1.6
2023-03-29T06:26:00.393Z,1.6
2023-03-29T06:27:00.275Z,1.6
2023-03-29T06:28:00.265Z,1.2
2023-03-29T06:29:00.284Z,1.2
2023-03-29T06:30:00.334Z,1.2
2023-03-29T06:31:00.529Z,1.2
2023-03-29T06:32:00.284Z,1.2
2023-03-29T06:33:00.326Z,1.2
2023-03-29T06:34:00.366Z,1.2
2023-03-29T06:35:00.391Z,1.2
2023-03-29T06:36:00.271Z,1.2
2023-03-29T06:37:00.259Z,1.2
2023-03-29T06:38:00.426Z,1.2
2023-03-29T06:39:00.278Z,1.2
2023-03-29T06:40:00.333Z,1.2
2023-03-29T06:41:01.543Z,1.2
2023-03-29T06:42:05.257Z,1.2
2023-03-29T06:43:00.265Z,1.2
2023-03-29T06:44:00.254Z,1.2
2023-03-29T06:45:00.308Z,1.2
2023-03-29T06:46:00.379Z,1.2
2023-03-29T06:47:00.279Z,1.2
2023-03-29T06:48:00.558Z,1.4
2023-03-29T06:49:00.258Z,1.4
2023-03-29T06:50:00.255Z,1.4
2023-03-29T06:51:00.454Z,1.4
2023-03-29T06:52:00.384Z,1.4
2023-03-29T06:53:00.266Z,1.4
2023-03-29T06:54:00.262Z,1.4
2023-03-29T06:55:00.254Z,1.4
2023-03-29T06:56:00.307Z,1.4
2023-03-29T06:57:00.471Z,1.4
2023-03-29T06:58:02.237Z,1.4
2023-03-29T06:59:00.262Z,1.4
2023-03-29T07:00:00.268Z,1.4
2023-03-29T07:01:00.888Z,1.4
2023-03-29T07:02:00.343Z,1.4
2023-03-29T07:03:03.331Z,1.4
2023-03-29T07:04:00.290Z,1.4
2023-03-29T07:05:00.259Z,1.4
2023-03-29T07:06:01.054Z,1.4
2023-03-29T07:07:00.271Z,1.4
2023-03-29T07:08:00.417Z,1.1
2023-03-29T07:09:00.254Z,1.1
2023-03-29T07:10:00.267Z,1.1
2023-03-29T07:11:00.520Z,1.1
2023-03-29T07:12:00.303Z,1.1
2023-03-29T07:13:00.279Z,1.1
2023-03-29T07:14:00.291Z,1.1
2023-03-29T07:15:00.282Z,1.1
2023-03-29T07:16:00.317Z,1.1
2023-03-29T07:17:00.250Z,1.1
2023-03-29T07:18:00.662Z,1.1
2023-03-29T07:19:00.271Z,1.1
2023-03-29T07:20:00.250Z,1.1
2023-03-29T07:21:00.842Z,1.1
2023-03-29T07:22:00.243Z,1.1
2023-03-29T07:23:00.276Z,1.1
2023-03-29T07:24:00.278Z,1.1
2023-03-29T07:25:00.256Z,1.1
2023-03-29T07:26:00.596Z,1.1
2023-03-29T07:27:03.743Z,1.1
2023-03-29T07:28:00.300Z,1.1
2023-03-29T07:29:00.262Z,1.1
2023-03-29T07:30:00.386Z,1.1
2023-03-29T07:31:01.531Z,1.1
2023-03-29T07:32:00.355Z,1.1
2023-03-29T07:33:00.508Z,1.1
2023-03-29T07:34:00.263Z,1.1
2023-03-29T07:35:00.269Z,1.1
2023-03-29T07:36:00.422Z,1.1
2023-03-29T07:37:00.265Z,1.1
2023-03-29T07:38:00.257Z,1.1
2023-03-29T07:39:00.276Z,1.1
2023-03-29T07:40:00.255Z,1.1
2023-03-29T07:41:02.040Z,1.1
2023-03-29T07:42:00.280Z,1.1
2023-03-29T07:43:00.293Z,1.1
2023-03-29T07:44:01.962Z,1.1
2023-03-29T07:45:00.247Z,1.1
2023-03-29T07:46:00.787Z,1.1
2023-03-29T07:47:00.860Z,1.1
2023-03-29T07:48:00.365Z,1.2
2023-03-29T07:49:00.438Z,1.2
2023-03-29T07:50:00.443Z,1.2
2023-03-29T07:51:00.510Z,1.2
2023-03-29T07:52:00.266Z,1.2
2023-03-29T07:53:00.284Z,1.2
2023-03-29T07:54:00.291Z,1.2
2023-03-29T07:55:00.256Z,1.2
2023-03-29T07:56:00.278Z,1.2
2023-03-29T07:57:00.307Z,1.2
2023-03-29T07:58:00.260Z,1.2
2023-03-29T07:59:00.257Z,1.2
2023-03-29T08:00:00.321Z,1.2
2023-03-29T08:01:00.683Z,1.2
2023-03-29T08:02:00.264Z,1.2
2023-03-29T08:03:00.271Z,1.2
2023-03-29T08:04:00.426Z,1.2
2023-03-29T08:05:00.297Z,1.2
2023-03-29T08:06:00.990Z,1.2
2023-03-29T08:07:00.250Z,1.2
2023-03-29T08:08:00.263Z,1.0
2023-03-29T08:09:00.264Z,1.0
2023-03-29T08:10:00.259Z,1.0
2023-03-29T08:11:00.384Z,1.0
2023-03-29T08:12:00.275Z,1.0
2023-03-29T08:13:02.698Z,1.0
2023-03-29T08:14:00.368Z,1.0
2023-03-29T08:15:00.260Z,1.0
2023-03-29T08:16:00.282Z,1.0
2023-03-29T08:17:00.368Z,1.0
2023-03-29T08:18:00.287Z,1.0
2023-03-29T08:19:00.268Z,1.0
2023-03-29T08:20:00.648Z,1.0
2023-03-29T08:21:00.589Z,1.0
2023-03-29T08:22:00.290Z,1.0
2023-03-29T08:23:00.273Z,1.0
2023-03-29T08:24:00.268Z,1.0
2023-03-29T08:25:00.469Z,1.0
2023-03-29T08:26:00.595Z,1.0
2023-03-29T08:27:00.267Z,1.0
2023-03-29T08:28:00.263Z,1.1
2023-03-29T08:29:00.258Z,1.1
2023-03-29T08:30:00.302Z,1.1
2023-03-29T08:31:00.465Z,1.1
2023-03-29T08:32:00.285Z,1.1
2023-03-29T08:33:00.303Z,1.1
2023-03-29T08:34:00.259Z,1.1
2023-03-29T08:35:00.269Z,1.1
2023-03-29T08:36:00.274Z,1.1
2023-03-29T08:37:00.624Z,1.1
2023-03-29T08:38:00.293Z,1.1
2023-03-29T08:39:00.260Z,1.1
2023-03-29T08:40:00.640Z,1.1
2023-03-29T08:41:00.337Z,1.1
2023-03-29T08:42:01.260Z,1.1
2023-03-29T08:43:05.847Z,1.1
2023-03-29T08:44:10.187Z,1.1
2023-03-29T08:45:10.219Z,1.1
2023-03-29T08:46:10.245Z,1.1
2023-03-29T08:47:10.204Z,0.9
2023-03-29T08:48:00.299Z,0.9
2023-03-29T08:49:02.154Z,0.9
2023-03-29T08:50:00.350Z,0.9
2023-03-29T08:51:03.721Z,0.9
2023-03-29T08:52:01.526Z,0.9
2023-03-29T08:53:02.986Z,0.9
2023-03-29T08:54:03.717Z,0.9
2023-03-29T08:55:02.106Z,0.9
2023-03-29T08:56:03.492Z,0.9
2023-03-29T08:57:05.352Z,0.9
2023-03-29T08:58:01.844Z,0.9
2023-03-29T08:59:00.509Z,0.9
2023-03-29T09:00:01.443Z,0.9
2023-03-29T09:01:02.965Z,0.9
2023-03-29T09:02:02.895Z,0.9
2023-03-29T09:03:00.449Z,0.9
2023-03-29T09:04:03.740Z,0.9
2023-03-29T09:05:06.489Z,0.9
2023-03-29T09:06:04.817Z,0.9
2023-03-29T09:07:01.758Z,0.9
2023-03-29T09:08:00.336Z,0.9
2023-03-29T09:09:00.287Z,0.9
2023-03-29T09:10:00.303Z,0.9
2023-03-29T09:11:00.512Z,0.9
2023-03-29T09:12:03.528Z,0.9
2023-03-29T09:13:08.903Z,0.9
2023-03-29T09:14:01.286Z,0.9
2023-03-29T09:15:01.308Z,0.9
2023-03-29T09:16:10.273Z,0.9
2023-03-29T09:17:10.197Z,0.9
2023-03-29T09:18:09.680Z,0.9
2023-03-29T09:19:10.202Z,0.9
2023-03-29T09:20:10.209Z,0.9
2023-03-29T09:21:08.495Z,0.9
2023-03-29T09:22:07.730Z,0.9
2023-03-29T09:23:06.156Z,0.9
2023-03-29T09:24:00.255Z,0.9
2023-03-29T09:25:10.185Z,0.9
2023-03-29T09:26:01.278Z,0.9
2023-03-29T09:27:10.207Z,0.8
2023-03-29T09:28:03.535Z,0.8
2023-03-29T09:29:10.204Z,0.8
2023-03-29T09:30:05.715Z,0.8
2023-03-29T09:31:10.232Z,0.8
2023-03-29T09:32:02.299Z,0.8
2023-03-29T09:33:10.226Z,0.8
2023-03-29T09:34:04.959Z,0.8
2023-03-29T09:35:01.249Z,0.8
2023-03-29T09:36:03.675Z,0.8
2023-03-29T09:37:01.258Z,0.8
2023-03-29T09:38:01.745Z,0.8
2023-03-29T09:39:00.549Z,0.8
2023-03-29T09:40:05.017Z,0.8
2023-03-29T09:41:06.026Z,0.8
2023-03-29T09:42:01.575Z,0.8
2023-03-29T09:43:02.617Z,0.8
2023-03-29T09:44:04.707Z,0.8
2023-03-29T09:45:02.207Z,0.8
2023-03-29T09:46:02.593Z,0.8
2023-03-29T09:47:05.114Z,0.9
2023-03-29T09:48:09.086Z,0.9
2023-03-29T09:49:00.800Z,0.9
2023-03-29T09:50:03.524Z,0.9
2023-03-29T09:51:01.038Z,0.9
2023-03-29T09:52:03.244Z,0.9
2023-03-29T09:53:00.308Z,0.9
2023-03-29T09:54:00.338Z,0.9
2023-03-29T09:55:00.704Z,0.9
2023-03-29T09:56:00.808Z,0.9
2023-03-29T09:57:00.354Z,0.9
2023-03-29T09:58:01.268Z,0.9
2023-03-29T09:59:00.252Z,0.9
2023-03-29T10:00:01.322Z,0.9
2023-03-29T10:01:02.053Z,0.9
2023-03-29T10:02:04.873Z,0.9
2023-03-29T10:03:00.516Z,0.9
2023-03-29T10:04:00.298Z,0.9
2023-03-29T10:05:03.143Z,0.9
2023-03-29T10:06:02.271Z,0.9
2023-03-29T10:07:00.436Z,0.9
2023-03-29T10:08:00.493Z,0.9
2023-03-29T10:09:00.344Z,0.9
2023-03-29T10:10:00.322Z,0.9
2023-03-29T10:11:02.693Z,0.9
2023-03-29T10:12:04.085Z,0.9
2023-03-29T10:13:02.771Z,0.9
2023-03-29T10:14:04.797Z,0.9
2023-03-29T10:15:00.359Z,0.9
2023-03-29T10:16:04.801Z,0.9
2023-03-29T10:17:03.031Z,0.9
2023-03-29T10:18:01.723Z,0.9
2023-03-29T10:19:10.194Z,0.9
2023-03-29T10:20:03.773Z,0.9
2023-03-29T10:21:02.768Z,0.9
2023-03-29T10:22:10.190Z,0.9
2023-03-29T10:23:00.280Z,0.9
2023-03-29T10:24:00.249Z,0.9
2023-03-29T10:25:00.371Z,0.9
2023-03-29T10:26:01.436Z,0.9
2023-03-29T10:27:01.763Z,1.0
2023-03-29T10:28:05.701Z,1.0
2023-03-29T10:29:02.029Z,1.0
2023-03-29T10:30:07.069Z,1.0
2023-03-29T10:31:00.889Z,1.0
2023-03-29T10:32:00.418Z,1.0
2023-03-29T10:33:00.418Z,1.0
2023-03-29T10:34:01.968Z,1.0
2023-03-29T10:35:07.108Z,1.0
2023-03-29T10:36:03.378Z,1.0
2023-03-29T10:37:01.054Z,1.0
2023-03-29T10:38:03.303Z,1.0
2023-03-29T10:39:05.574Z,1.0
2023-03-29T10:40:00.365Z,1.0
2023-03-29T10:41:04.183Z,1.0
2023-03-29T10:42:01.841Z,1.0
2023-03-29T10:43:10.186Z,1.0
2023-03-29T10:44:00.681Z,1.0
2023-03-29T10:45:00.433Z,1.0
2023-03-29T10:46:10.214Z,1.0
2023-03-29T10:47:10.203Z,1.1
2023-03-29T10:48:02.908Z,1.1
2023-03-29T10:49:01.856Z,1.1
2023-03-29T10:50:04.506Z,1.1
2023-03-29T10:51:01.270Z,1.1
2023-03-29T10:52:00.268Z,1.1
2023-03-29T10:53:01.595Z,1.1
2023-03-29T10:54:00.916Z,1.1
2023-03-29T10:55:00.343Z,1.1
2023-03-29T10:56:01.284Z,1.1
2023-03-29T10:57:02.852Z,1.1
2023-03-29T10:58:10.227Z,1.1
2023-03-29T10:59:10.208Z,1.1
2023-03-29T11:00:02.648Z,1.1
2023-03-29T11:01:01.038Z,1.1
2023-03-29T11:02:00.340Z,1.1
2023-03-29T11:03:10.289Z,1.1
2023-03-29T11:04:10.305Z,1.1
2023-03-29T11:05:00.311Z,1.1
2023-03-29T11:06:10.199Z,1.1
2023-03-29T11:07:10.190Z,1.0
2023-03-29T11:08:08.348Z,1.0
2023-03-29T11:09:02.451Z,1.0
2023-03-29T11:10:10.209Z,1.0
2023-03-29T11:11:10.245Z,1.0
2023-03-29T11:12:15.119Z,1.0
2023-03-29T11:13:01.326Z,1.0
2023-03-29T11:14:06.875Z,1.0
2023-03-29T11:15:00.234Z,1.0
2023-03-29T11:16:00.289Z,1.0
2023-03-29T11:17:10.194Z,1.0
2023-03-29T11:18:10.232Z,1.0
2023-03-29T11:19:10.209Z,1.0
2023-03-29T11:20:10.186Z,1.0
2023-03-29T11:21:10.090Z,1.0
2023-03-29T11:22:00.249Z,1.0
2023-03-29T11:23:10.186Z,1.0
2023-03-29T11:24:00.238Z,1.0
2023-03-29T11:25:01.277Z,1.0
2023-03-29T11:26:10.206Z,1.0
2023-03-29T11:27:03.501Z,1.0
2023-03-29T11:28:10.205Z,1.0
2023-03-29T11:29:00.231Z,1.0
2023-03-29T11:30:07.921Z,1.0
2023-03-29T11:31:01.665Z,1.0
2023-03-29T11:32:10.198Z,1.0
2023-03-29T11:33:00.320Z,1.0
2023-03-29T11:34:00.249Z,1.0
2023-03-29T11:35:10.213Z,1.0
2023-03-29T11:36:03.549Z,1.0
2023-03-29T11:37:01.257Z,1.0
2023-03-29T11:38:10.207Z,1.0
2023-03-29T11:39:01.277Z,1.0
2023-03-29T11:40:03.525Z,1.0
2023-03-29T11:41:06.697Z,1.0
2023-03-29T11:42:05.299Z,1.0
2023-03-29T11:43:02.865Z,1.0
2023-03-29T11:44:02.862Z,1.0
2023-03-29T11:45:02.018Z,1.0
2023-03-29T11:46:03.528Z,1.0
2023-03-29T11:47:10.190Z,0.6
2023-03-29T11:48:01.685Z,0.6
2023-03-29T11:49:04.940Z,0.6
2023-03-29T11:50:10.270Z,0.6
2023-03-29T11:51:04.964Z,0.6
2023-03-29T11:52:10.201Z,0.6
2023-03-29T11:53:04.835Z,0.6
2023-03-29T11:54:09.292Z,0.6
2023-03-29T11:55:00.233Z,0.6
2023-03-29T11:56:05.520Z,0.6
2023-03-29T11:57:04.315Z,0.6
2023-03-29T11:58:03.720Z,0.6
2023-03-29T11:59:05.046Z,0.6
2023-03-29T12:00:00.259Z,0.6
2023-03-29T12:01:02.333Z,0.6
2023-03-29T12:02:08.986Z,0.6
2023-03-29T12:03:09.899Z,0.6
2023-03-29T12:04:05.158Z,0.6
2023-03-29T12:05:05.463Z,0.6
2023-03-29T12:06:02.931Z,0.6
2023-03-29T12:07:03.514Z,0.6
2023-03-29T12:08:10.210Z,0.6
2023-03-29T12:09:05.287Z,0.6
2023-03-29T12:10:10.243Z,0.6
2023-03-29T12:11:05.932Z,0.6
2023-03-29T12:12:10.257Z,0.6
2023-03-29T12:13:10.198Z,0.6
2023-03-29T12:14:04.565Z,0.6
2023-03-29T12:15:05.791Z,0.6
2023-03-29T12:16:05.630Z,0.6
2023-03-29T12:17:02.140Z,0.6
2023-03-29T12:18:10.239Z,0.6
2023-03-29T12:19:03.752Z,0.6
2023-03-29T12:20:04.007Z,0.6
2023-03-29T12:21:03.422Z,0.6
2023-03-29T12:22:00.884Z,0.6
2023-03-29T12:23:00.514Z,0.6
2023-03-29T12:24:00.317Z,0.6
2023-03-29T12:25:01.945Z,0.6
2023-03-29T12:26:10.197Z,0.6
2023-03-29T12:27:00.228Z,0.6
2023-03-29T12:28:10.184Z,0.6
2023-03-29T12:29:10.204Z,0.6
2023-03-29T12:30:03.519Z,0.6
2023-03-29T12:31:10.186Z,0.6
2023-03-29T12:32:10.305Z,0.6
2023-03-29T12:33:04.994Z,0.6
2023-03-29T12:34:09.196Z,0.6
2023-03-29T12:35:10.200Z,0.6
2023-03-29T12:36:03.549Z,0.6
2023-03-29T12:37:10.188Z,0.6
2023-03-29T12:38:10.189Z,0.6
2023-03-29T12:39:00.461Z,0.6
2023-03-29T12:40:10.190Z,0.6
2023-03-29T12:41:03.183Z,0.6
2023-03-29T12:42:10.185Z,0.6
2023-03-29T12:43:02.413Z,0.6
2023-03-29T12:44:01.451Z,0.6
2023-03-29T12:45:00.270Z,0.6
2023-03-29T12:46:05.729Z,0.6
2023-03-29T12:47:00.391Z,0.5
2023-03-29T12:48:00.594Z,0.5
2023-03-29T12:49:05.071Z,0.5
2023-03-29T12:50:00.601Z,0.5
2023-03-29T12:51:02.294Z,0.5
2023-03-29T12:52:02.302Z,0.5
2023-03-29T12:53:01.743Z,0.5
2023-03-29T12:54:10.200Z,0.5
2023-03-29T12:55:02.505Z,0.5
2023-03-29T12:56:01.780Z,0.5
2023-03-29T12:57:10.211Z,0.5
2023-03-29T12:58:03.621Z,0.5
2023-03-29T12:59:10.188Z,0.5
2023-03-29T13:00:09.453Z,0.5
2023-03-29T13:01:05.547Z,0.5
2023-03-29T13:02:10.239Z,0.5
2023-03-29T13:03:01.375Z,0.5
2023-03-29T13:04:00.281Z,0.5
2023-03-29T13:05:00.379Z,0.5
2023-03-29T13:06:02.070Z,0.5
2023-03-29T13:07:00.814Z,0.4
2023-03-29T13:08:10.107Z,0.4
2023-03-29T13:09:03.450Z,0.4
2023-03-29T13:10:01.750Z,0.4
2023-03-29T13:11:00.521Z,0.4
2023-03-29T13:12:10.218Z,0.4
2023-03-29T13:13:07.741Z,0.4
2023-03-29T13:14:01.542Z,0.4
2023-03-29T13:15:03.041Z,0.4
2023-03-29T13:16:09.272Z,0.4
2023-03-29T13:17:11.989Z,0.4
2023-03-29T13:18:12.284Z,0.4
2023-03-29T13:19:10.208Z,0.4
2023-03-29T13:20:08.629Z,0.4
2023-03-29T13:21:10.217Z,0.4
2023-03-29T13:22:01.253Z,0.4
2023-03-29T13:23:00.240Z,0.4
2023-03-29T13:24:10.188Z,0.4
2023-03-29T13:25:10.251Z,0.4
2023-03-29T13:26:00.501Z,0.4
2023-03-29T13:27:00.255Z,0.4
2023-03-29T13:28:08.232Z,0.4
2023-03-29T13:29:01.272Z,0.4
2023-03-29T13:30:10.188Z,0.4
2023-03-29T13:31:05.550Z,0.4
2023-03-29T13:32:10.187Z,0.4
2023-03-29T13:33:10.189Z,0.4
2023-03-29T13:34:03.884Z,0.4
2023-03-29T13:35:08.899Z,0.4
2023-03-29T13:36:00.463Z,0.4
2023-03-29T13:37:10.190Z,0.4
2023-03-29T13:38:10.197Z,0.4
2023-03-29T13:39:03.906Z,0.4
2023-03-29T13:40:00.291Z,0.4
2023-03-29T13:41:02.534Z,0.4
2023-03-29T13:42:10.205Z,0.4
2023-03-29T13:43:07.684Z,0.4
2023-03-29T13:44:00.267Z,0.4
2023-03-29T13:45:07.619Z,0.4
2023-03-29T13:46:00.482Z,0.4